createdAt,value
2018-09-02T00:01:21.142Z,9.40
2018-09-02T00:03:48.362Z,6.90
2018-09-02T00:06:15.572Z,8.40
2018-09-02T00:08:42.808Z,8.17
2018-09-02T00:11:10.073Z,8.87
2018-09-02T00:13:37.321Z,10.73
2018-09-02T00:16:04.561Z,7.80
2018-09-02T00:18:31.789Z,10.63
2018-09-02T00:20:58.991Z,8.20
2018-09-02T00:23:26.242Z,7.80
2018-09-02T00:25:53.523Z,9.47
2018-09-02T00:28:20.722Z,9.83
2018-09-02T00:30:47.940Z,8.63
2018-09-02T00:33:15.185Z,7.70
2018-09-02T00:35:42.606Z,8.50
2018-09-02T00:38:10.036Z,7.50
2018-09-02T00:40:37.510Z,7.63
2018-09-02T00:43:04.904Z,10.07
2018-09-02T00:45:32.499Z,9.00
2018-09-02T00:47:59.884Z,8.17
2018-09-02T00:50:27.267Z,9.00
2018-09-02T00:52:54.663Z,9.33
2018-09-02T00:55:22.204Z,7.77
2018-09-02T00:57:49.640Z,8.37
2018-09-02T01:00:17.458Z,9.10
2018-09-02T01:02:44.920Z,9.87
2018-09-02T01:05:12.323Z,7.97
2018-09-02T01:07:39.747Z,9.07
2018-09-02T01:10:07.951Z,11.73
2018-09-02T01:12:35.172Z,8.00
2018-09-02T01:15:02.410Z,8.60
2018-09-02T01:17:29.866Z,8.03
2018-09-02T01:19:57.338Z,9.27
2018-09-02T01:22:24.593Z,10.73
2018-09-02T01:24:51.996Z,9.40
2018-09-02T01:27:19.392Z,9.20
2018-09-02T01:29:46.801Z,11.70
2018-09-02T01:32:14.855Z,9.97
2018-09-02T01:34:42.268Z,9.87
2018-09-02T01:37:09.752Z,10.17
2018-09-02T01:39:37.258Z,12.43
2018-09-02T01:42:04.805Z,9.40
2018-09-02T01:44:32.202Z,10.37
2018-09-02T01:46:59.593Z,10.30
2018-09-02T01:49:27.012Z,9.77
2018-09-02T01:51:54.619Z,9.70
2018-09-02T01:54:22.100Z,10.13
2018-09-02T01:56:49.495Z,12.90
2018-09-02T01:59:16.907Z,11.20
2018-09-02T02:01:44.315Z,11.27
2018-09-02T02:04:11.752Z,8.97
2018-09-02T02:06:39.237Z,10.43
2018-09-02T02:09:07.848Z,8.67
2018-09-02T02:11:35.299Z,9.87
2018-09-02T02:14:02.736Z,10.17
2018-09-02T02:16:30.128Z,9.50
2018-09-02T02:18:57.532Z,9.37
2018-09-02T02:21:24.963Z,9.60
2018-09-02T02:23:52.442Z,9.20
2018-09-02T02:26:19.892Z,9.80
2018-09-02T02:28:47.332Z,8.20
2018-09-02T02:31:14.748Z,11.00
2018-09-02T02:33:42.160Z,8.13
2018-09-02T02:36:09.603Z,10.13
2018-09-02T02:38:37.054Z,8.28
2018-09-02T02:41:04.509Z,10.23
2018-09-02T02:43:31.981Z,7.30
2018-09-02T02:45:59.411Z,11.40
2018-09-02T02:48:26.804Z,7.33
2018-09-02T02:50:54.270Z,7.53
2018-09-02T02:53:21.684Z,9.93
2018-09-02T02:55:49.071Z,7.58
2018-09-02T02:58:16.481Z,8.53
2018-09-02T03:00:43.897Z,7.37
2018-09-02T03:03:11.330Z,8.18
2018-09-02T03:05:38.812Z,8.08
2018-09-02T03:08:06.284Z,8.13
2018-09-02T03:10:33.708Z,7.60
2018-09-02T03:13:01.116Z,10.90
2018-09-02T03:15:28.512Z,8.25
2018-09-02T03:17:55.913Z,7.58
2018-09-02T03:20:23.392Z,9.60
2018-09-02T03:22:50.836Z,8.60
2018-09-02T03:25:18.248Z,10.25
2018-09-02T03:27:45.665Z,10.48
2018-09-02T03:30:13.120Z,8.60
2018-09-02T03:32:41.156Z,9.27
2018-09-02T03:35:08.636Z,8.45
2018-09-02T03:37:36.104Z,8.73
2018-09-02T03:40:03.835Z,9.33
2018-09-02T03:42:31.240Z,12.82
2018-09-02T03:44:58.650Z,11.57
2018-09-02T03:47:26.062Z,8.43
2018-09-02T03:49:53.496Z,10.80
2018-09-02T03:52:21.032Z,9.85
2018-09-02T03:54:48.488Z,10.90
2018-09-02T03:57:15.909Z,10.55
2018-09-02T03:59:43.351Z,11.18
2018-09-02T04:02:10.779Z,9.85
2018-09-02T04:04:38.223Z,9.97
2018-09-02T04:07:05.706Z,10.45
2018-09-02T04:09:33.139Z,13.83
2018-09-02T04:12:00.634Z,11.97
2018-09-02T04:14:28.082Z,11.48
2018-09-02T04:16:55.552Z,12.03
2018-09-02T04:19:22.996Z,12.98
2018-09-02T04:21:50.413Z,15.35
2018-09-02T04:24:17.848Z,11.43
2018-09-02T04:26:45.275Z,15.63
2018-09-02T04:29:12.667Z,13.65
2018-09-02T04:31:40.140Z,14.38
2018-09-02T04:34:07.603Z,14.43
2018-09-02T04:36:35.054Z,12.30
2018-09-02T04:39:04.056Z,15.15
2018-09-02T04:41:31.460Z,12.95
2018-09-02T04:43:58.961Z,13.45
2018-09-02T04:46:26.404Z,14.30
2018-09-02T04:48:53.676Z,13.98
2018-09-02T04:51:21.124Z,14.63
2018-09-02T04:53:48.688Z,15.98
2018-09-02T04:56:16.126Z,12.40
2018-09-02T04:58:43.367Z,17.00
2018-09-02T05:01:10.833Z,14.40
2018-09-02T05:03:38.323Z,13.05
2018-09-02T05:06:05.769Z,15.78
2018-09-02T05:08:33.207Z,15.10
2018-09-02T05:11:00.668Z,19.45
2018-09-02T05:13:28.093Z,13.25
2018-09-02T05:15:55.536Z,13.85
2018-09-02T05:18:22.944Z,13.08
2018-09-02T05:20:50.208Z,15.60
2018-09-02T05:23:17.626Z,14.38
2018-09-02T05:25:45.115Z,13.93
2018-09-02T05:28:12.532Z,13.68
2018-09-02T05:30:40.027Z,12.63
2018-09-02T05:33:07.581Z,13.35
2018-09-02T05:35:35.046Z,14.13
2018-09-02T05:38:02.500Z,13.25
2018-09-02T05:40:29.962Z,17.25
2018-09-02T05:42:57.379Z,13.08
2018-09-02T05:45:24.837Z,15.60
2018-09-02T05:47:52.064Z,11.03
2018-09-02T05:50:19.471Z,15.40
2018-09-02T05:52:46.888Z,13.22
2018-09-02T05:55:14.436Z,12.88
2018-09-02T05:57:41.944Z,15.25
2018-09-02T06:00:09.163Z,14.95
2018-09-02T06:02:36.602Z,11.90
2018-09-02T06:05:04.091Z,13.62
2018-09-02T06:07:31.664Z,14.50
2018-09-02T06:09:59.068Z,13.55
2018-09-02T06:12:27.076Z,15.58
2018-09-02T06:14:54.304Z,19.70
2018-09-02T06:17:21.798Z,16.35
2018-09-02T06:19:49.200Z,16.40
2018-09-02T06:22:16.619Z,18.27
2018-09-02T06:24:44.050Z,19.23
2018-09-02T06:27:11.556Z,18.45
2018-09-02T06:29:39.045Z,21.60
2018-09-02T06:32:06.432Z,28.07
2018-09-02T06:34:33.949Z,27.10
2018-09-02T06:37:01.130Z,31.53
2018-09-02T06:39:28.614Z,23.30
2018-09-02T06:41:56.033Z,25.60
2018-09-02T06:44:23.340Z,21.10
2018-09-02T06:46:50.736Z,25.53
2018-09-02T06:49:18.151Z,25.27
2018-09-02T06:51:45.396Z,24.87
2018-09-02T06:54:12.787Z,18.50
2018-09-02T06:56:40.252Z,17.17
2018-09-02T06:59:07.752Z,17.67
2018-09-02T07:01:34.993Z,18.90
2018-09-02T07:04:02.402Z,17.67
2018-09-02T07:06:29.855Z,14.43
2018-09-02T07:08:57.253Z,16.13
2018-09-02T07:11:24.704Z,17.17
2018-09-02T07:13:52.123Z,18.07
2018-09-02T07:16:19.533Z,16.13
2018-09-02T07:18:46.939Z,14.57
2018-09-02T07:21:14.352Z,14.60
2018-09-02T07:23:41.756Z,14.63
2018-09-02T07:26:09.281Z,14.70
2018-09-02T07:28:36.764Z,16.00
2018-09-02T07:31:04.246Z,14.93
2018-09-02T07:33:32.264Z,13.37
2018-09-02T07:35:59.697Z,15.80
2018-09-02T07:38:27.172Z,13.00
2018-09-02T07:40:54.697Z,14.73
2018-09-02T07:43:45.931Z,13.33
2018-09-02T07:46:13.116Z,16.50
2018-09-02T07:48:40.412Z,12.10
2018-09-02T07:51:07.691Z,11.10
2018-09-02T07:53:34.909Z,10.70
2018-09-02T07:56:02.124Z,9.70
2018-09-02T07:58:29.331Z,9.23
2018-09-02T08:00:56.573Z,9.53
2018-09-02T08:03:23.897Z,8.90
2018-09-02T08:05:55.762Z,8.87
2018-09-02T08:08:22.970Z,7.87
2018-09-02T08:10:50.184Z,8.40
2018-09-02T08:13:17.410Z,8.40
2018-09-02T08:15:44.672Z,9.00
2018-09-02T08:18:11.964Z,7.97
2018-09-02T08:20:39.199Z,7.33
2018-09-02T08:23:06.485Z,8.10
2018-09-02T08:25:33.700Z,7.60
2018-09-02T08:28:00.992Z,7.17
2018-09-02T08:30:28.222Z,7.53
2018-09-02T08:32:55.534Z,7.63
2018-09-02T08:35:22.728Z,10.37
2018-09-02T08:37:49.967Z,8.33
2018-09-02T08:40:18.268Z,7.27
2018-09-02T08:42:45.488Z,6.40
2018-09-02T08:45:12.687Z,7.90
2018-09-02T08:47:40.129Z,6.73
2018-09-02T08:50:07.463Z,7.00
2018-09-02T08:52:34.677Z,6.87
2018-09-02T08:55:01.900Z,7.70
2018-09-02T08:57:34.097Z,6.50
2018-09-02T09:00:01.413Z,6.73
2018-09-02T09:02:30.104Z,8.33
2018-09-02T09:04:57.475Z,5.60
2018-09-02T09:07:25.428Z,6.27
2018-09-02T09:09:52.637Z,8.40
2018-09-02T09:12:19.864Z,6.80
2018-09-02T09:14:47.113Z,6.90
2018-09-02T09:17:19.358Z,6.50
2018-09-02T09:22:41.611Z,6.27
2018-09-02T09:25:09.930Z,5.30
2018-09-02T09:27:37.474Z,5.13
2018-09-02T09:30:08.678Z,6.97
2018-09-02T09:32:36.214Z,5.40
2018-09-02T09:35:03.817Z,4.63
2018-09-02T09:37:31.307Z,4.23
2018-09-02T09:39:58.709Z,4.87
2018-09-02T09:42:27.225Z,4.47
2018-09-02T09:45:00.614Z,4.43
2018-09-02T09:47:28.178Z,3.97
2018-09-02T09:49:55.684Z,6.87
2018-09-02T09:52:23.224Z,3.60
2018-09-02T09:54:50.784Z,6.37
2018-09-02T09:57:18.315Z,3.50
2018-09-02T09:59:46.535Z,7.93
2018-09-02T10:02:14.027Z,4.17
2018-09-02T10:04:41.472Z,4.97
2018-09-02T10:07:08.944Z,2.70
2018-09-02T10:09:36.473Z,3.23
2018-09-02T10:12:03.964Z,3.90
2018-09-02T10:14:31.571Z,3.63
2018-09-02T10:16:59.024Z,5.00
2018-09-02T10:19:26.525Z,3.47
2018-09-02T10:21:54.053Z,4.20
2018-09-02T10:24:21.532Z,3.40
2018-09-02T10:26:49.028Z,3.40
2018-09-02T10:29:16.485Z,4.43
2018-09-02T10:31:43.724Z,2.90
2018-09-02T10:34:11.052Z,3.63
2018-09-02T10:36:38.359Z,3.03
2018-09-02T10:39:06.385Z,3.37
2018-09-02T10:41:33.759Z,4.33
2018-09-02T10:44:01.672Z,5.00
2018-09-02T10:46:28.947Z,8.27
2018-09-02T10:48:56.297Z,3.20
2018-09-02T10:51:23.598Z,2.70
2018-09-02T10:53:50.886Z,2.83
2018-09-02T10:56:19.258Z,2.73
2018-09-02T10:58:46.553Z,3.00
2018-09-02T11:01:13.842Z,3.00
2018-09-02T11:03:41.226Z,3.03
2018-09-02T11:06:08.581Z,2.67
2018-09-02T11:08:35.812Z,2.50
2018-09-02T11:11:03.132Z,5.23
2018-09-02T11:13:30.423Z,2.77
2018-09-02T11:15:57.652Z,2.30
2018-09-02T11:18:25.055Z,2.33
2018-09-02T11:20:52.366Z,4.20
2018-09-02T11:23:19.599Z,2.83
2018-09-02T11:25:47.595Z,2.23
2018-09-02T11:28:14.819Z,3.37
2018-09-02T11:30:54.305Z,2.77
2018-09-02T11:33:21.574Z,4.40
2018-09-02T11:35:48.877Z,3.57
2018-09-02T11:38:16.088Z,4.53
2018-09-02T11:40:43.891Z,3.50
2018-09-02T11:43:11.360Z,3.53
2018-09-02T11:45:38.857Z,3.17
2018-09-02T11:48:06.415Z,3.07
2018-09-02T11:50:33.884Z,2.70
2018-09-02T11:53:01.285Z,2.30
2018-09-02T11:55:28.760Z,2.80
2018-09-02T11:57:56.223Z,2.87
2018-09-02T12:00:23.732Z,3.90
2018-09-02T12:02:51.164Z,3.13
2018-09-02T12:05:18.605Z,3.53
2018-09-02T12:07:46.079Z,2.73
2018-09-02T12:10:13.522Z,2.63
2018-09-02T12:12:40.971Z,3.30
2018-09-02T12:15:08.472Z,2.67
2018-09-02T12:17:35.923Z,5.40
2018-09-02T12:20:03.408Z,2.97
2018-09-02T12:22:30.874Z,3.20
2018-09-02T12:24:58.388Z,4.37
2018-09-02T12:27:25.864Z,4.50
2018-09-02T12:29:53.684Z,3.50
2018-09-02T12:32:21.310Z,2.40
2018-09-02T12:34:49.011Z,2.53
2018-09-02T12:37:16.670Z,2.20
2018-09-02T12:39:44.337Z,2.73
2018-09-02T12:42:12.190Z,2.80
2018-09-02T12:44:39.643Z,3.43
2018-09-02T12:47:07.266Z,2.80
2018-09-02T12:49:34.709Z,3.00
2018-09-02T12:52:02.202Z,2.70
2018-09-02T12:54:29.637Z,3.60
2018-09-02T12:56:57.240Z,3.07
2018-09-02T12:59:24.720Z,2.70
2018-09-02T13:01:52.315Z,2.83
2018-09-02T13:04:19.925Z,2.53
2018-09-02T13:06:47.365Z,3.93
2018-09-02T13:09:14.834Z,2.27
2018-09-02T13:11:44.663Z,2.93
2018-09-02T13:14:12.150Z,2.73
2018-09-02T13:16:39.600Z,4.57
2018-09-02T13:19:07.253Z,3.10
2018-09-02T13:21:34.613Z,2.70
2018-09-02T13:24:02.092Z,3.73
2018-09-02T13:26:30.448Z,3.87
2018-09-02T13:28:57.884Z,2.10
2018-09-02T13:31:25.320Z,2.33
2018-09-02T13:33:52.838Z,2.67
2018-09-02T13:36:20.220Z,2.57
2018-09-02T13:38:48.204Z,2.90
2018-09-02T13:41:15.662Z,2.23
2018-09-02T13:43:43.104Z,3.13
2018-09-02T13:46:10.641Z,3.30
2018-09-02T13:48:38.088Z,4.30
2018-09-02T13:51:05.663Z,4.70
2018-09-02T13:53:33.140Z,3.83
2018-09-02T13:56:00.568Z,2.70
2018-09-02T13:58:28.032Z,2.70
2018-09-02T14:00:55.519Z,3.80
2018-09-02T14:03:22.904Z,4.23
2018-09-02T14:05:50.348Z,3.47
2018-09-02T14:08:17.902Z,3.50
2018-09-02T14:10:45.288Z,2.30
2018-09-02T14:13:12.716Z,2.43
2018-09-02T14:15:40.636Z,3.30
2018-09-02T14:18:08.103Z,3.13
2018-09-02T14:20:35.559Z,2.40
2018-09-02T14:23:03.084Z,7.30
2018-09-02T14:25:30.545Z,2.30
2018-09-02T14:27:58.024Z,2.47
2018-09-02T14:30:25.472Z,2.30
2018-09-02T14:32:52.927Z,3.20
2018-09-02T14:35:20.415Z,2.57
2018-09-02T14:37:47.859Z,3.00
2018-09-02T14:40:15.299Z,2.73
2018-09-02T14:42:42.729Z,3.30
2018-09-02T14:45:10.164Z,2.90
2018-09-02T14:47:37.660Z,2.93
2018-09-02T14:50:05.305Z,2.33
2018-09-02T14:52:32.813Z,2.40
2018-09-02T14:55:00.263Z,3.10
2018-09-02T14:57:27.716Z,3.27
2018-09-02T14:59:55.283Z,3.00
2018-09-02T15:02:22.773Z,3.13
2018-09-02T15:04:50.287Z,2.70
2018-09-02T15:07:17.691Z,3.93
2018-09-02T15:09:45.217Z,2.80
2018-09-02T15:12:12.647Z,2.87
2018-09-02T15:14:40.365Z,3.27
2018-09-02T15:17:07.875Z,3.40
2018-09-02T15:19:35.392Z,3.43
2018-09-02T15:22:02.908Z,2.60
2018-09-02T15:24:30.352Z,3.70
2018-09-02T15:26:57.760Z,2.60
2018-09-02T15:29:25.185Z,2.33
2018-09-02T15:31:52.651Z,3.10
2018-09-02T15:34:20.100Z,2.40
2018-09-02T15:36:47.564Z,2.50
2018-09-02T15:39:14.997Z,2.53
2018-09-02T15:41:42.395Z,2.10
2018-09-02T15:44:10.355Z,3.10
2018-09-02T15:46:37.791Z,3.00
2018-09-02T15:49:05.393Z,2.43
2018-09-02T15:51:32.943Z,2.47
2018-09-02T15:54:00.378Z,3.00
2018-09-02T15:56:27.828Z,2.23
2018-09-02T15:58:55.285Z,3.30
2018-09-02T16:01:22.738Z,4.37
2018-09-02T16:03:50.184Z,2.43
2018-09-02T16:06:17.798Z,4.13
2018-09-02T16:08:45.720Z,2.90
2018-09-02T16:11:13.140Z,2.77
2018-09-02T16:13:40.544Z,3.03
2018-09-02T16:16:07.951Z,2.40
2018-09-02T16:18:35.538Z,2.87
2018-09-02T16:21:03.590Z,3.70
2018-09-02T16:23:31.108Z,2.30
2018-09-02T16:25:58.620Z,2.30
2018-09-02T16:28:26.064Z,2.60
2018-09-02T16:30:53.485Z,3.67
2018-09-02T16:33:20.893Z,3.77
2018-09-02T16:35:48.944Z,2.73
2018-09-02T16:38:16.365Z,2.50
2018-09-02T16:40:44.196Z,8.93
2018-09-02T16:43:11.675Z,4.53
2018-09-02T16:45:39.101Z,3.50
2018-09-02T16:48:06.873Z,2.77
2018-09-02T16:50:34.464Z,2.80
2018-09-02T16:53:02.075Z,2.70
2018-09-02T16:55:29.394Z,3.30
2018-09-02T16:57:56.844Z,2.60
2018-09-02T17:00:24.268Z,2.70
2018-09-02T17:02:51.671Z,2.77
2018-09-02T17:05:21.176Z,2.40
2018-09-02T17:07:49.068Z,2.37
2018-09-02T17:10:16.760Z,3.20
2018-09-02T17:12:44.292Z,2.80
2018-09-02T17:15:11.629Z,2.50
2018-09-02T17:17:39.120Z,2.77
2018-09-02T17:20:07.774Z,3.50
2018-09-02T17:22:35.275Z,2.50
2018-09-02T17:25:02.763Z,2.70
2018-09-02T17:27:30.156Z,4.80
2018-09-02T17:29:57.597Z,2.13
2018-09-02T17:32:25.732Z,2.00
2018-09-02T17:34:53.176Z,2.40
2018-09-02T17:37:20.560Z,12.03
2018-09-02T17:39:48.027Z,2.77
2018-09-02T17:42:15.480Z,3.77
2018-09-02T17:44:42.898Z,3.90
2018-09-02T17:47:10.321Z,3.20
2018-09-02T17:49:37.791Z,2.87
2018-09-02T17:52:05.281Z,2.00
2018-09-02T17:54:32.986Z,13.30
2018-09-02T17:57:00.507Z,4.90
2018-09-02T17:59:27.935Z,2.40
2018-09-02T18:01:55.411Z,2.57
2018-09-02T18:04:22.803Z,3.00
2018-09-02T18:06:50.400Z,2.73
2018-09-02T18:09:17.809Z,2.30
2018-09-02T18:11:45.257Z,5.43
2018-09-02T18:14:12.912Z,3.90
2018-09-02T18:16:40.408Z,2.10
2018-09-02T18:19:07.856Z,2.87
2018-09-02T18:21:35.569Z,2.90
2018-09-02T18:24:03.117Z,2.33
2018-09-02T18:26:30.592Z,2.37
2018-09-02T18:28:58.012Z,4.13
2018-09-02T18:31:25.432Z,2.37
2018-09-02T18:33:52.832Z,3.37
2018-09-02T18:36:20.478Z,3.23
2018-09-02T18:38:47.910Z,3.27
2018-09-02T18:41:15.332Z,2.47
2018-09-02T18:43:42.950Z,2.80
2018-09-02T18:46:10.766Z,2.03
2018-09-02T18:48:38.280Z,2.60
2018-09-02T18:51:05.722Z,2.30
2018-09-02T18:53:33.221Z,2.70
2018-09-02T18:56:00.680Z,3.67
2018-09-02T18:58:28.287Z,2.27
2018-09-02T19:00:55.901Z,3.53
2018-09-02T19:03:23.633Z,2.60
2018-09-02T19:05:51.095Z,2.70
2018-09-02T19:08:18.605Z,2.40
2018-09-02T19:10:46.580Z,2.50
2018-09-02T19:13:14.000Z,2.53
2018-09-02T19:15:41.448Z,2.47
2018-09-02T19:18:08.868Z,2.30
2018-09-02T19:20:36.312Z,2.50
2018-09-02T19:23:03.808Z,3.00
2018-09-02T19:25:31.230Z,2.60
2018-09-02T19:27:59.376Z,2.53
2018-09-02T19:30:26.997Z,2.37
2018-09-02T19:32:54.632Z,2.40
2018-09-02T19:35:22.065Z,2.40
2018-09-02T19:37:49.506Z,4.80
2018-09-02T19:40:16.936Z,2.30
2018-09-02T19:42:44.415Z,2.87
2018-09-02T19:45:11.855Z,3.90
2018-09-02T19:47:40.677Z,1.90
2018-09-02T19:50:08.205Z,2.50
2018-09-02T19:52:36.672Z,3.77
2018-09-02T19:55:04.309Z,2.27
2018-09-02T19:57:31.781Z,3.20
2018-09-02T19:59:59.387Z,7.33
2018-09-02T20:02:26.832Z,4.20
2018-09-02T20:04:54.266Z,3.67
2018-09-02T20:07:21.820Z,3.70
2018-09-02T20:09:49.259Z,4.53
2018-09-02T20:12:16.823Z,3.37
2018-09-02T20:14:44.244Z,2.70
2018-09-02T20:17:11.632Z,3.00
2018-09-02T20:19:39.185Z,2.70
2018-09-02T20:22:08.236Z,3.10
2018-09-02T20:24:35.680Z,3.00
2018-09-02T20:27:03.165Z,4.80
2018-09-02T20:29:30.596Z,2.23
2018-09-02T20:31:58.054Z,3.00
2018-09-02T20:34:25.532Z,3.03
2018-09-02T20:36:52.993Z,3.90
2018-09-02T20:39:20.441Z,8.17
2018-09-02T20:41:47.887Z,3.60
2018-09-02T20:44:15.306Z,3.53
2018-09-02T20:46:42.699Z,2.73
2018-09-02T20:49:10.112Z,2.77
2018-09-02T20:51:37.556Z,3.07
2018-09-02T20:54:05.221Z,5.97
2018-09-02T20:56:32.652Z,3.50
2018-09-02T20:59:00.097Z,2.87
2018-09-02T21:01:27.544Z,5.50
2018-09-02T21:03:55.001Z,3.20
2018-09-02T21:06:22.403Z,3.00
2018-09-02T21:08:50.389Z,4.03
2018-09-02T21:11:17.847Z,3.47
2018-09-02T21:13:45.239Z,3.50
2018-09-02T21:16:12.719Z,3.10
2018-09-02T21:18:40.991Z,4.10
2018-09-02T21:21:08.420Z,6.93
2018-09-02T21:23:35.959Z,4.07
2018-09-02T21:26:03.652Z,3.10
2018-09-02T21:28:31.065Z,3.47
2018-09-02T21:30:58.484Z,3.97
2018-09-02T21:33:25.952Z,3.30
2018-09-02T21:35:53.331Z,3.20
2018-09-02T21:38:20.857Z,9.40
2018-09-02T21:40:48.287Z,4.07
2018-09-02T21:43:15.696Z,3.50
2018-09-02T21:45:44.190Z,3.20
2018-09-02T21:48:12.628Z,3.53
2018-09-02T21:50:40.088Z,2.97
2018-09-02T21:53:07.532Z,3.83
2018-09-02T21:55:35.028Z,2.87
2018-09-02T21:58:02.475Z,3.90
2018-09-02T22:00:29.945Z,5.80
2018-09-02T22:03:03.265Z,4.90
2018-09-02T22:05:31.733Z,3.70
2018-09-02T22:07:59.156Z,3.43
2018-09-02T22:10:26.571Z,3.80
2018-09-02T22:12:54.000Z,4.60
2018-09-02T22:15:21.452Z,6.33
2018-09-02T22:17:48.869Z,4.73
2018-09-02T22:20:16.306Z,3.80
2018-09-02T22:22:43.803Z,4.80
2018-09-02T22:25:11.245Z,3.50
2018-09-02T22:27:38.800Z,4.20
2018-09-02T22:30:07.396Z,4.73
2018-09-02T22:32:34.940Z,3.73
2018-09-02T22:35:07.847Z,3.43
2018-09-02T22:37:35.285Z,4.83
2018-09-02T22:40:02.844Z,4.20
2018-09-02T22:42:30.259Z,4.43
2018-09-02T22:44:57.716Z,3.73
2018-09-02T22:47:25.127Z,6.37
2018-09-02T22:49:52.557Z,3.90
2018-09-02T22:52:19.971Z,3.80
2018-09-02T22:54:47.396Z,4.47
2018-09-02T22:57:14.799Z,4.60
2018-09-02T22:59:42.200Z,4.77
2018-09-02T23:02:09.628Z,8.10
2018-09-02T23:04:37.032Z,5.20
2018-09-02T23:07:04.456Z,4.27
2018-09-02T23:09:31.872Z,4.23
2018-09-02T23:11:59.303Z,4.17
2018-09-02T23:14:26.693Z,3.80
2018-09-02T23:16:54.105Z,5.60
2018-09-02T23:19:21.575Z,4.40
2018-09-02T23:21:48.935Z,4.23
2018-09-02T23:24:16.412Z,5.33
2018-09-02T23:26:43.830Z,5.03
2018-09-02T23:29:11.282Z,4.80
2018-09-02T23:31:38.665Z,4.77
2018-09-02T23:34:06.237Z,6.93
2018-09-02T23:36:33.743Z,4.10
2018-09-02T23:39:01.235Z,3.80
2018-09-02T23:41:30.655Z,4.40
2018-09-02T23:43:58.069Z,4.53
2018-09-02T23:46:25.538Z,4.10
2018-09-02T23:48:53.002Z,3.70
2018-09-02T23:51:20.468Z,6.93
2018-09-02T23:53:47.931Z,5.90
2018-09-02T23:56:15.353Z,3.13
2018-09-02T23:58:43.468Z,4.70
